Time;durP1;ratioP1;P1;durP2;ratioP2;P2;SDS_P1;SDS_P2;PMS_P1;PMS_P2;Temp;Humidity;BMP_temperature;BMP_pressure;BME280_temperature;BME280_humidity;BME280_pressure;Samples;Min_cycle;Max_cycle;Signal;HPM_P1;HPM_P2
2021/12/17 00:02:56;;;;;;;13.20;9.25;;;4.70;99.90;;;;;;1936590;72;22167;-80
2021/12/17 00:05:13;;;;;;;12.25;9.00;;;4.80;99.90;;;;;;1904810;75;21106;-81
2021/12/17 00:08:03;;;;;;;12.68;9.08;;;4.80;99.90;;;;;;1900405;75;21200;-80
2021/12/17 00:10:54;;;;;;;11.60;8.70;;;4.80;99.90;;;;;;1908035;75;21055;-80
2021/12/17 00:14:04;;;;;;;13.83;10.15;;;4.70;99.90;;;;;;1895619;75;21098;-79
2021/12/17 00:16:57;;;;;;;12.93;9.20;;;4.70;99.90;;;;;;1874044;76;21062;-81
2021/12/17 00:52:32;;;;;;;9.68;6.95;;;4.60;99.90;;;;;;1957445;72;22151;-80
2021/12/17 00:58:01;;;;;;;9.18;6.17;;;4.60;99.90;;;;;;1941167;72;22191;-80
2021/12/17 01:00:52;;;;;;;9.40;6.30;;;4.50;99.90;;;;;;1903082;75;21046;-80
2021/12/17 01:03:44;;;;;;;9.58;7.12;;;4.50;99.90;;;;;;1914816;75;21156;-80
2021/12/17 01:06:35;;;;;;;8.58;6.35;;;4.50;99.90;;;;;;1879247;76;21062;-80
2021/12/17 01:09:46;;;;;;;8.85;6.33;;;4.50;99.90;;;;;;1904411;74;21457;-80
2021/12/17 01:12:38;;;;;;;8.95;6.62;;;4.60;99.90;;;;;;1859522;76;21074;-79
2021/12/17 01:15:47;;;;;;;8.00;6.05;;;4.60;99.90;;;;;;1906783;75;21034;-79
2021/12/17 01:18:54;;;;;;;8.88;6.33;;;4.60;99.90;;;;;;1917627;75;21145;-80
2021/12/17 01:21:57;;;;;;;8.93;5.60;;;4.60;99.90;;;;;;1909051;74;21093;-80
2021/12/17 01:40:49;;;;;;;8.35;6.00;;;4.50;99.90;;;;;;1955543;72;22186;-80
2021/12/17 01:43:21;;;;;;;8.13;5.92;;;4.40;99.90;;;;;;1886655;75;21063;-80
2021/12/17 01:46:14;;;;;;;8.98;6.10;;;4.40;99.90;;;;;;1911526;75;21091;-79
2021/12/17 01:49:24;;;;;;;9.23;7.03;;;4.40;99.90;;;;;;1896089;75;21094;-80
2021/12/17 01:55:50;;;;;;;8.35;5.80;;;4.40;99.90;;;;;;1906821;75;21136;-79
2021/12/17 02:04:28;;;;;;;7.05;5.15;;;4.20;99.90;;;;;;1924868;72;22147;-80
2021/12/17 02:19:45;;;;;;;7.95;6.60;;;4.20;99.90;;;;;;1946579;72;27930;-80
2021/12/17 02:29:23;;;;;;;6.45;5.00;;;4.30;99.90;;;;;;1840492;75;21087;-80
2021/12/17 02:32:25;;;;;;;7.87;5.03;;;4.30;99.90;;;;;;1932963;73;21039;-80
2021/12/17 02:38:02;;;;;;;7.62;5.25;;;4.20;99.90;;;;;;1934132;72;22205;-80
2021/12/17 02:47:36;;;;;;;11.12;5.35;;;4.20;99.90;;;;;;1906733;75;21058;-80
2021/12/17 02:50:48;;;;;;;7.70;5.20;;;4.20;99.90;;;;;;1905276;75;21112;-80
2021/12/17 02:53:40;;;;;;;6.72;4.90;;;4.10;99.90;;;;;;1902590;75;21080;-79
2021/12/17 02:59:13;;;;;;;7.33;5.42;;;4.20;99.90;;;;;;1949252;72;22241;-81
2021/12/17 03:02:07;;;;;;;12.00;5.70;;;4.20;99.90;;;;;;1896329;75;21129;-79
2021/12/17 03:04:59;;;;;;;6.65;5.22;;;4.20;99.90;;;;;;1920686;74;21055;-79
2021/12/17 03:07:52;;;;;;;9.03;5.80;;;4.20;99.90;;;;;;1897816;75;21127;-79
2021/12/17 03:11:04;;;;;;;7.72;5.47;;;4.20;99.90;;;;;;1897106;75;21066;-79
2021/12/17 03:13:55;;;;;;;7.70;5.75;;;4.20;99.90;;;;;;1891935;75;21062;-79
2021/12/17 03:16:58;;;;;;;7.17;5.28;;;4.20;99.90;;;;;;1915737;75;21113;-79
2021/12/17 03:26:02;;;;;;;7.95;5.58;;;4.20;99.90;;;;;;1902623;75;21059;-79
2021/12/17 03:28:55;;;;;;;8.98;5.62;;;4.20;99.90;;;;;;1910476;74;21122;-80
2021/12/17 03:31:47;;;;;;;7.08;5.33;;;4.10;99.90;;;;;;1906787;75;21103;-80
2021/12/17 03:34:39;;;;;;;8.40;5.55;;;4.20;99.90;;;;;;1905317;75;21363;-79
2021/12/17 03:40:13;;;;;;;8.75;5.42;;;4.20;99.90;;;;;;1950461;72;22334;-80
2021/12/17 03:43:11;;;;;;;7.70;5.37;;;4.20;99.90;;;;;;1891243;75;21055;-80
2021/12/17 03:45:57;;;;;;;7.12;5.35;;;4.30;99.90;;;;;;1916438;75;21143;-80
2021/12/17 03:48:49;;;;;;;8.55;5.50;;;4.30;99.90;;;;;;1902859;75;21474;-80
2021/12/17 03:52:05;;;;;;;9.30;5.35;;;4.20;99.90;;;;;;1901785;75;21079;-80
2021/12/17 03:57:38;;;;;;;7.28;5.35;;;4.30;99.90;;;;;;1943693;72;22132;-80
2021/12/17 04:03:08;;;;;;;6.87;5.03;;;4.30;99.90;;;;;;1955676;72;22247;-80
2021/12/17 04:08:41;;;;;;;8.85;5.72;;;4.30;99.90;;;;;;1942887;72;22197;-81
2021/12/17 04:11:40;;;;;;;7.60;5.30;;;4.20;99.90;;;;;;1902243;75;21063;-80
2021/12/17 04:17:21;;;;;;;7.10;5.12;;;4.10;99.90;;;;;;1948458;72;22254;-80
2021/12/17 04:20:10;;;;;;;7.78;5.67;;;4.10;99.90;;;;;;1940272;73;21106;-80
2021/12/17 04:23:03;;;;;;;7.78;5.72;;;4.10;99.90;;;;;;1938532;73;21131;-79
2021/12/17 04:28:36;;;;;;;9.55;5.17;;;4.20;99.90;;;;;;1956874;72;22202;-80
2021/12/17 04:34:08;;;;;;;8.40;6.47;;;4.30;99.90;;;;;;1958056;72;22143;-80
2021/12/17 04:37:00;;;;;;;10.70;6.10;;;4.30;99.90;;;;;;1884784;75;21159;-80
2021/12/17 04:39:53;;;;;;;7.87;5.90;;;4.20;99.90;;;;;;1892828;75;21160;-81
2021/12/17 04:42:56;;;;;;;8.45;6.22;;;4.20;99.90;;;;;;1912438;75;21163;-79
2021/12/17 04:46:04;;;;;;;9.25;6.45;;;4.20;99.90;;;;;;1895554;75;21118;-78
2021/12/17 04:58:26;;;;;;;9.30;6.03;;;4.20;99.90;;;;;;1900893;75;21087;-79
2021/12/17 05:01:19;;;;;;;12.05;6.40;;;4.20;99.90;;;;;;1910882;75;21064;-79
2021/12/17 05:04:11;;;;;;;7.42;5.65;;;4.10;99.90;;;;;;1910933;75;21058;-79
2021/12/17 05:07:06;;;;;;;8.30;5.45;;;4.10;99.90;;;;;;1908420;75;21123;-79
2021/12/17 05:19:11;;;;;;;9.73;5.70;;;4.20;99.90;;;;;;1915173;74;21589;-81
2021/12/17 05:21:56;;;;;;;8.38;5.47;;;4.10;99.90;;;;;;1934253;73;21063;-80
2021/12/17 05:25:08;;;;;;;9.83;5.78;;;4.20;99.90;;;;;;1922036;73;21051;-80
2021/12/17 05:30:46;;;;;;;7.62;5.58;;;4.10;99.90;;;;;;1940478;72;22221;-80
2021/12/17 05:33:35;;;;;;;8.28;5.78;;;4.10;99.90;;;;;;1915955;75;21160;-80
2021/12/17 05:36:26;;;;;;;8.73;5.62;;;4.20;99.90;;;;;;1895382;75;21051;-80
2021/12/17 05:39:19;;;;;;;8.85;5.78;;;4.20;99.90;;;;;;1897390;75;21106;-79
2021/12/17 05:45:21;;;;;;;9.85;6.87;;;4.10;99.90;;;;;;1964852;72;22204;-80
2021/12/17 05:48:05;;;;;;;10.25;6.20;;;4.10;99.90;;;;;;1927844;74;21165;-80
2021/12/17 05:50:59;;;;;;;12.23;6.20;;;4.10;99.90;;;;;;1913752;74;21113;-79
2021/12/17 05:53:51;;;;;;;8.18;5.80;;;4.10;99.90;;;;;;1919056;74;21064;-79
2021/12/17 05:59:40;;;;;;;9.80;6.30;;;4.30;99.90;;;;;;1939998;72;22522;-80
2021/12/17 06:02:31;;;;;;;9.43;6.12;;;4.30;99.90;;;;;;1913918;74;21578;-80
2021/12/17 06:08:03;;;;;;;10.18;6.70;;;4.40;99.90;;;;;;1943842;72;22212;-80
2021/12/17 06:10:53;;;;;;;8.83;6.17;;;4.40;99.90;;;;;;1905371;75;21083;-80
2021/12/17 06:13:46;;;;;;;8.40;5.95;;;4.40;99.90;;;;;;1902651;75;21138;-80
2021/12/17 06:19:21;;;;;;;9.15;6.10;;;4.30;99.90;;;;;;1944117;72;22274;-80
2021/12/17 06:22:12;;;;;;;9.98;6.30;;;4.20;99.90;;;;;;1909074;75;21054;-81
2021/12/17 06:27:44;;;;;;;9.58;5.67;;;4.30;99.90;;;;;;1954762;72;22263;-80
2021/12/17 06:33:14;;;;;;;9.50;5.92;;;4.30;99.90;;;;;;1947136;72;22216;-81
2021/12/17 06:36:07;;;;;;;9.20;6.30;;;4.30;99.90;;;;;;1905395;74;21125;-80
2021/12/17 06:38:59;;;;;;;8.45;6.22;;;4.20;99.90;;;;;;1905221;75;21083;-80
2021/12/17 06:41:52;;;;;;;9.08;6.85;;;4.20;99.90;;;;;;1905072;75;21150;-80
2021/12/17 06:47:56;;;;;;;10.53;6.70;;;4.30;99.90;;;;;;1951900;72;22980;-80
2021/12/17 07:10:43;;;;;;;10.55;7.12;;;4.20;99.90;;;;;;1911410;74;21067;-80
2021/12/17 07:17:22;;;;;;;10.45;6.67;;;4.20;99.90;;;;;;1905334;75;21094;-80
2021/12/17 07:23:49;;;;;;;11.70;7.30;;;4.20;99.90;;;;;;1929385;74;21576;-80
2021/12/17 07:35:23;;;;;;;10.90;7.85;;;4.40;99.90;;;;;;1941364;72;22171;-81
2021/12/17 07:41:07;;;;;;;12.10;8.98;;;4.50;99.90;;;;;;1894613;75;21172;-82
2021/12/17 07:44:01;;;;;;;14.15;9.88;;;4.40;99.90;;;;;;1889800;75;21112;-80
2021/12/17 07:47:12;;;;;;;14.25;9.98;;;4.50;99.90;;;;;;1889949;75;21060;-80
2021/12/17 07:50:06;;;;;;;13.55;9.28;;;4.50;99.90;;;;;;1884987;75;21069;-81
2021/12/17 07:52:59;;;;;;;17.00;9.70;;;4.50;99.90;;;;;;1881256;75;21052;-82
2021/12/17 07:55:52;;;;;;;14.50;10.40;;;4.70;99.90;;;;;;1900384;75;21064;-81
2021/12/17 07:58:45;;;;;;;14.05;9.58;;;4.70;99.90;;;;;;1885897;75;21113;-82
2021/12/17 08:01:38;;;;;;;15.30;9.95;;;4.60;99.90;;;;;;1903192;75;21092;-83
2021/12/17 08:07:11;;;;;;;14.53;8.83;;;4.70;99.90;;;;;;1940220;72;22194;-82
2021/12/17 08:12:42;;;;;;;10.85;7.97;;;4.70;99.90;;;;;;1931358;72;22750;-82
2021/12/17 08:15:39;;;;;;;11.28;8.70;;;4.70;99.90;;;;;;1929474;73;21201;-82
2021/12/17 08:18:44;;;;;;;14.30;9.05;;;4.80;99.90;;;;;;1917400;73;21066;-82
2021/12/17 08:24:58;;;;;;;;;;;4.70;99.90;;;;;;1920029;75;21489;-83
2021/12/17 08:28:02;;;;;;;12.05;8.83;;;4.70;99.90;;;;;;1917575;75;20142;-82
2021/12/17 08:30:43;;;;;;;13.55;8.48;;;4.70;99.90;;;;;;1917587;75;21174;-82
2021/12/17 08:33:36;;;;;;;13.75;8.80;;;4.70;99.90;;;;;;1947352;73;21066;-81
2021/12/17 08:36:35;;;;;;;12.93;9.00;;;4.70;99.90;;;;;;1928025;73;21068;-81
2021/12/17 08:42:06;;;;;;;12.00;8.58;;;4.70;99.90;;;;;;1962037;72;22208;-82
2021/12/17 08:44:59;;;;;;;14.55;9.18;;;4.70;99.90;;;;;;1917615;75;21604;-82
2021/12/17 08:51:02;;;;;;;12.45;7.92;;;4.70;99.90;;;;;;1959160;72;22294;-82
2021/12/17 08:53:54;;;;;;;13.15;8.10;;;4.70;99.90;;;;;;1917742;75;21172;-81
2021/12/17 08:59:29;;;;;;;10.58;8.18;;;4.60;99.90;;;;;;1937390;72;22084;-82
2021/12/17 09:02:26;;;;;;;11.60;7.80;;;4.70;99.90;;;;;;1864569;75;21185;-81
2021/12/17 09:05:20;;;;;;;13.13;7.17;;;4.70;99.90;;;;;;1898460;75;21067;-81
2021/12/17 09:08:14;;;;;;;11.75;7.33;;;4.70;99.90;;;;;;1888033;75;21072;-81
2021/12/17 09:11:26;;;;;;;12.50;7.50;;;4.60;99.90;;;;;;1887410;75;21060;-81
2021/12/17 09:14:20;;;;;;;12.47;7.72;;;4.70;99.90;;;;;;1883458;75;21149;-81
2021/12/17 09:17:13;;;;;;;11.35;8.10;;;4.70;99.90;;;;;;1880185;75;21060;-83
2021/12/17 09:22:45;;;;;;;13.22;9.03;;;4.50;99.90;;;;;;1949131;72;22617;-82
2021/12/17 09:25:37;;;;;;;13.62;8.00;;;4.60;99.90;;;;;;1900693;75;21055;-81
2021/12/17 09:28:32;;;;;;;10.60;7.35;;;4.60;99.90;;;;;;1894372;75;21103;-83
2021/12/17 09:31:25;;;;;;;12.40;7.75;;;4.60;99.90;;;;;;1896477;75;21059;-81
2021/12/17 09:34:35;;;;;;;11.65;7.60;;;4.70;99.90;;;;;;1884810;75;21607;-81
2021/12/17 09:37:28;;;;;;;13.93;8.10;;;4.60;99.90;;;;;;1890659;75;21072;-81
2021/12/17 09:42:58;;;;;;;12.75;8.05;;;4.80;99.90;;;;;;1934042;72;22221;-82
2021/12/17 09:48:29;;;;;;;11.12;8.00;;;5.00;99.90;;;;;;1948875;72;22158;-82
2021/12/17 09:51:21;;;;;;;11.63;8.10;;;5.00;99.90;;;;;;1926743;73;21194;-83
2021/12/17 09:54:13;;;;;;;14.83;8.83;;;5.00;99.90;;;;;;1927671;74;21091;-83
2021/12/17 09:57:05;;;;;;;11.57;7.95;;;4.90;99.90;;;;;;1925865;74;21154;-82
2021/12/17 10:02:57;;;;;;;10.60;7.60;;;4.90;99.90;;;;;;1944295;72;22292;-82
2021/12/17 10:05:49;;;;;;;10.93;8.33;;;4.80;99.90;;;;;;1918138;74;21110;-83
2021/12/17 10:08:49;;;;;;;12.07;8.18;;;5.00;99.90;;;;;;1895509;75;21158;-80
2021/12/17 10:14:22;;;;;;;11.05;7.70;;;5.00;99.90;;;;;;1951848;72;22269;-82
2021/12/17 10:17:15;;;;;;;12.23;7.95;;;5.00;99.90;;;;;;1888487;74;21690;-82
2021/12/17 10:20:09;;;;;;;13.62;8.20;;;5.20;99.90;;;;;;1895299;75;21099;-83
2021/12/17 10:23:04;;;;;;;11.73;8.15;;;5.20;99.90;;;;;;1892468;75;21569;-82
2021/12/17 10:28:57;;;;;;;18.67;8.58;;;5.20;99.90;;;;;;1943544;72;22275;-82
2021/12/17 10:32:03;;;;;;;13.00;8.53;;;5.10;99.90;;;;;;1942575;73;21107;-82
2021/12/17 10:35:13;;;;;;;15.53;8.13;;;5.00;99.90;;;;;;1933003;73;21095;-82
2021/12/17 10:38:08;;;;;;;13.53;8.13;;;5.10;99.90;;;;;;1909489;74;21108;-82
2021/12/17 10:41:17;;;;;;;13.22;8.68;;;5.20;99.90;;;;;;1936241;73;21063;-82
2021/12/17 10:44:10;;;;;;;11.30;7.97;;;5.20;99.90;;;;;;1926439;74;21117;-82
2021/12/17 10:47:14;;;;;;;12.35;7.72;;;5.20;99.90;;;;;;1943575;73;21059;-81
2021/12/17 10:50:03;;;;;;;11.73;8.38;;;5.30;99.90;;;;;;1926276;74;21063;-82
2021/12/17 10:52:57;;;;;;;15.28;7.92;;;5.20;99.90;;;;;;1905207;75;21570;-82
2021/12/17 10:55:48;;;;;;;12.15;8.63;;;5.30;99.90;;;;;;1924196;74;21129;-82
2021/12/17 10:58:41;;;;;;;13.62;8.53;;;5.30;99.90;;;;;;1938680;74;21060;-81
2021/12/17 11:01:40;;;;;;;14.00;8.20;;;5.40;99.90;;;;;;1905311;75;21127;-82
2021/12/17 11:07:13;;;;;;;11.38;8.20;;;5.40;99.90;;;;;;1952288;72;22251;-83
2021/12/17 11:12:44;;;;;;;11.43;8.05;;;5.50;99.90;;;;;;1934526;72;22264;-83
2021/12/17 11:15:36;;;;;;;12.35;9.15;;;5.60;99.90;;;;;;1898477;75;21103;-82
2021/12/17 11:18:28;;;;;;;13.53;8.60;;;5.50;99.90;;;;;;1883335;75;21142;-82
2021/12/17 11:24:01;;;;;;;14.87;9.60;;;5.60;99.90;;;;;;1951342;72;22124;-82
2021/12/17 11:26:52;;;;;;;13.20;9.78;;;5.70;99.90;;;;;;1896279;75;21191;-82
2021/12/17 11:29:45;;;;;;;13.78;9.98;;;5.70;99.90;;;;;;1877304;75;21123;-82
2021/12/17 11:32:37;;;;;;;14.65;10.15;;;5.80;99.90;;;;;;1890397;75;21166;-83
2021/12/17 11:38:31;;;;;;;13.70;9.28;;;5.80;99.90;;;;;;1935810;72;22216;-83
2021/12/17 11:41:26;;;;;;;13.78;8.08;;;5.90;99.90;;;;;;1898916;75;21143;-82
2021/12/17 11:44:21;;;;;;;11.38;8.70;;;5.80;99.90;;;;;;1883528;75;21192;-82
2021/12/17 11:47:14;;;;;;;13.08;8.85;;;5.80;99.90;;;;;;1887512;75;21060;-82
2021/12/17 11:50:25;;;;;;;12.45;9.05;;;5.90;99.90;;;;;;1890114;75;21048;-82
2021/12/17 11:53:24;;;;;;;13.30;9.48;;;5.80;99.90;;;;;;1884822;75;21183;-82
2021/12/17 11:56:18;;;;;;;12.13;9.00;;;5.70;99.90;;;;;;1905258;75;21770;-83
2021/12/17 11:59:12;;;;;;;15.40;9.03;;;5.80;99.90;;;;;;1883382;75;21139;-82
2021/12/17 12:02:11;;;;;;;12.15;9.00;;;5.90;99.90;;;;;;1884369;75;21172;-81
2021/12/17 12:05:06;;;;;;;13.32;10.00;;;6.00;99.90;;;;;;1890654;75;21076;-82
2021/12/17 12:08:00;;;;;;;13.72;9.73;;;6.00;99.90;;;;;;1886066;75;21122;-83
2021/12/17 12:11:05;;;;;;;13.93;9.98;;;6.00;99.90;;;;;;1896458;75;21075;-82
2021/12/17 12:13:57;;;;;;;14.95;9.28;;;6.10;99.90;;;;;;1894379;75;21048;-81
2021/12/17 12:16:50;;;;;;;13.50;9.90;;;6.10;99.90;;;;;;1894589;75;21052;-81
2021/12/17 12:19:51;;;;;;;14.75;9.88;;;6.00;99.90;;;;;;1891654;75;21051;-81
2021/12/17 12:22:43;;;;;;;11.25;8.50;;;6.00;99.90;;;;;;1888480;75;21056;-83
2021/12/17 12:25:34;;;;;;;12.88;8.75;;;6.10;99.90;;;;;;1895014;75;21086;-84
2021/12/17 12:28:58;;;;;;;12.05;9.38;;;6.10;99.90;;;;;;1894650;75;21105;-82
2021/12/17 12:32:20;;;;;;;14.50;10.53;;;6.20;99.90;;;;;;1884759;75;21146;-81
2021/12/17 12:35:09;;;;;;;13.68;10.55;;;6.20;99.90;;;;;;1874942;75;21186;-82
2021/12/17 12:38:20;;;;;;;12.13;8.98;;;6.20;99.90;;;;;;1876598;75;21091;-82
2021/12/17 12:41:16;;;;;;;13.32;8.98;;;6.10;99.90;;;;;;1880891;75;21179;-81
2021/12/17 12:44:07;;;;;;;15.10;10.50;;;6.10;99.90;;;;;;1892992;75;21179;-81
2021/12/17 12:46:59;;;;;;;11.65;9.43;;;6.10;99.90;;;;;;1888019;75;21488;-81
2021/12/17 12:49:53;;;;;;;11.60;9.33;;;6.20;99.90;;;;;;1874191;75;21122;-96
2021/12/17 12:52:47;;;;;;;12.20;9.15;;;6.30;99.90;;;;;;1873606;77;21103;-95
2021/12/17 12:56:00;;;;;;;14.43;9.80;;;6.20;99.90;;;;;;1873996;77;21202;-94
2021/12/17 12:58:55;;;;;;;13.72;9.73;;;6.20;99.90;;;;;;1873670;77;21173;-95
2021/12/17 13:01:48;;;;;;;13.20;9.25;;;6.20;99.90;;;;;;1873535;77;21133;-96
2021/12/17 13:04:42;;;;;;;15.25;9.80;;;6.30;99.90;;;;;;1873912;77;21063;-94
2021/12/17 13:07:36;;;;;;;12.47;9.73;;;6.30;99.90;;;;;;1873952;77;21059;-94
2021/12/17 13:10:38;;;;;;;12.50;9.38;;;6.30;99.90;;;;;;1874678;77;21114;-93
2021/12/17 13:13:38;;;;;;;12.60;9.60;;;6.20;99.90;;;;;;1874183;76;21116;-95
2021/12/17 13:16:44;;;;;;;13.03;9.63;;;6.10;99.90;;;;;;1873862;77;21160;-96
2021/12/17 13:22:59;;;;;;;11.90;9.05;;;6.20;99.90;;;;;;1844067;76;21153;-95
2021/12/17 13:26:12;;;;;;;13.45;10.20;;;6.30;99.90;;;;;;1874208;76;21161;-96
2021/12/17 13:29:24;;;;;;;14.58;9.55;;;6.20;99.90;;;;;;1874004;77;21180;-95
2021/12/17 13:32:21;;;;;;;14.43;9.53;;;6.20;99.90;;;;;;1874166;77;21056;-96
2021/12/17 13:35:21;;;;;;;11.55;8.90;;;6.20;99.90;;;;;;1873758;76;21063;-94
2021/12/17 13:38:26;;;;;;;13.00;9.63;;;6.10;99.90;;;;;;1873496;75;21079;-96
2021/12/17 13:41:21;;;;;;;11.75;9.13;;;6.20;99.90;;;;;;1874134;77;21071;-95
2021/12/17 13:44:39;;;;;;;12.13;9.48;;;6.30;99.90;;;;;;1873963;77;21125;-95
2021/12/17 13:47:33;;;;;;;13.40;9.75;;;6.20;99.90;;;;;;1874003;77;21146;-95
2021/12/17 13:50:29;;;;;;;13.53;10.50;;;6.30;99.90;;;;;;1873835;76;21059;-95
2021/12/17 13:53:21;;;;;;;12.20;9.25;;;6.20;99.90;;;;;;1873731;77;21059;-94
2021/12/17 13:56:17;;;;;;;12.05;9.53;;;6.20;99.90;;;;;;1873694;77;21072;-94
2021/12/17 13:59:11;;;;;;;12.58;9.23;;;6.20;99.90;;;;;;1873732;76;21103;-94
2021/12/17 14:02:08;;;;;;;11.03;9.20;;;6.10;99.90;;;;;;1873699;77;21063;-94
2021/12/17 14:05:06;;;;;;;13.48;9.20;;;6.20;99.90;;;;;;1874340;77;21143;-94
2021/12/17 14:08:03;;;;;;;12.18;9.55;;;6.10;99.90;;;;;;1874449;77;21071;-96
2021/12/17 14:10:56;;;;;;;12.50;10.28;;;6.10;99.90;;;;;;1874000;77;21083;-95
2021/12/17 14:13:52;;;;;;;14.55;10.35;;;6.10;99.90;;;;;;1873964;76;21095;-95
2021/12/17 14:16:48;;;;;;;12.85;9.20;;;6.20;99.90;;;;;;1873835;77;21062;-96
2021/12/17 14:19:45;;;;;;;14.15;10.48;;;6.20;99.90;;;;;;1873737;77;21129;-95
2021/12/17 14:22:49;;;;;;;11.68;9.20;;;6.20;99.90;;;;;;1873343;77;21249;-94
2021/12/17 14:25:43;;;;;;;14.20;9.60;;;6.20;99.90;;;;;;1874039;77;21052;-94
2021/12/17 14:28:43;;;;;;;12.70;9.38;;;6.20;99.90;;;;;;1873931;77;21064;-96
2021/12/17 14:31:34;;;;;;;12.35;9.45;;;6.10;99.90;;;;;;1875409;77;21063;-94
2021/12/17 14:34:26;;;;;;;13.22;9.15;;;6.10;99.90;;;;;;1875081;77;21159;-94
2021/12/17 14:37:18;;;;;;;12.82;10.35;;;6.10;99.90;;;;;;1873461;77;21161;-96
2021/12/17 14:40:26;;;;;;;14.00;9.75;;;6.10;99.90;;;;;;1874253;76;21188;-95
2021/12/17 14:43:35;;;;;;;12.05;9.10;;;6.20;99.90;;;;;;1873849;77;21072;-96
